createdAt,value
2022-09-30T00:00:35.610Z,6.32
2022-09-30T00:03:37.929Z,6.28
2022-09-30T00:06:39.714Z,6.26
2022-09-30T00:09:41.673Z,6.22
2022-09-30T00:12:44.423Z,6.18
2022-09-30T00:15:48.171Z,6.16
2022-09-30T00:18:52.412Z,6.10
2022-09-30T00:21:54.460Z,6.10
2022-09-30T00:24:56.040Z,6.09
2022-09-30T00:27:58.841Z,6.06
2022-09-30T00:31:05.571Z,6.03
2022-09-30T00:34:07.647Z,6.21
2022-09-30T00:37:12.112Z,6.15
2022-09-30T00:40:13.860Z,6.05
2022-09-30T00:43:17.029Z,6.03
2022-09-30T00:46:27.342Z,6.03
2022-09-30T00:49:30.608Z,5.98
2022-09-30T00:52:33.504Z,5.97
2022-09-30T00:55:39.896Z,5.97
2022-09-30T00:58:44.848Z,5.94
2022-09-30T01:01:49.815Z,5.93
2022-09-30T01:04:52.421Z,5.95
2022-09-30T01:07:56.873Z,5.94
2022-09-30T01:11:07.834Z,5.94
2022-09-30T01:14:13.319Z,5.94
2022-09-30T01:17:20.878Z,6.05
2022-09-30T01:20:49.978Z,6.05
2022-09-30T01:24:08.850Z,6.10
2022-09-30T01:27:27.220Z,6.15
2022-09-30T01:30:45.740Z,6.16
2022-09-30T01:33:53.706Z,6.05
2022-09-30T01:37:08.155Z,5.97
2022-09-30T01:40:14.952Z,5.86
2022-09-30T01:43:23.907Z,5.81
2022-09-30T01:46:34.269Z,5.79
2022-09-30T01:49:40.475Z,5.76
2022-09-30T01:52:47.789Z,5.76
2022-09-30T01:55:52.888Z,5.72
2022-09-30T01:58:57.704Z,5.68
2022-09-30T02:02:04.800Z,5.66
2022-09-30T02:05:10.594Z,5.66
2022-09-30T02:08:17.355Z,5.66
2022-09-30T02:11:22.886Z,5.67
2022-09-30T02:14:28.871Z,5.66
2022-09-30T02:17:35.055Z,5.64
2022-09-30T02:20:39.283Z,5.59
2022-09-30T02:23:43.002Z,5.55
2022-09-30T02:26:48.054Z,5.51
2022-09-30T02:29:56.288Z,5.48
2022-09-30T02:33:00.718Z,5.51
2022-09-30T02:36:08.034Z,5.47
2022-09-30T02:39:13.958Z,5.46
2022-09-30T02:42:20.487Z,5.49
2022-09-30T02:45:25.686Z,5.54
2022-09-30T02:48:32.978Z,5.50
2022-09-30T02:51:40.424Z,5.45
2022-09-30T02:54:47.608Z,5.37
2022-09-30T02:57:56.129Z,5.34
2022-09-30T03:00:58.419Z,5.33
2022-09-30T03:04:04.263Z,5.32
2022-09-30T03:07:06.214Z,5.30
2022-09-30T03:10:13.123Z,5.29
2022-09-30T03:13:22.259Z,5.26
2022-09-30T03:16:31.387Z,5.29
2022-09-30T03:19:42.719Z,5.33
2022-09-30T03:22:52.635Z,5.32
2022-09-30T03:26:02.248Z,5.32
2022-09-30T03:29:11.421Z,5.29
2022-09-30T03:32:20.464Z,5.28
2022-09-30T03:35:29.227Z,5.30
2022-09-30T03:38:38.716Z,5.33
2022-09-30T03:41:42.082Z,5.33
2022-09-30T03:44:56.554Z,5.31
2022-09-30T03:48:01.633Z,5.30
2022-09-30T03:51:08.630Z,5.28
2022-09-30T03:54:11.998Z,5.28
2022-09-30T03:57:15.153Z,5.27
2022-09-30T04:00:20.335Z,5.24
2022-09-30T04:03:23.588Z,5.19
2022-09-30T04:06:26.920Z,5.18
2022-09-30T04:09:28.696Z,5.16
2022-09-30T04:12:31.651Z,5.15
2022-09-30T04:15:33.671Z,5.15
2022-09-30T04:18:36.055Z,5.16
2022-09-30T04:21:39.510Z,5.20
2022-09-30T04:24:41.291Z,5.20
2022-09-30T04:27:45.196Z,5.21
2022-09-30T04:30:50.249Z,5.24
2022-09-30T04:33:54.478Z,5.20
2022-09-30T04:36:58.584Z,5.20
2022-09-30T04:40:02.117Z,5.19
2022-09-30T04:43:05.259Z,5.17
2022-09-30T04:46:07.995Z,5.14
2022-09-30T04:49:10.220Z,5.18
2022-09-30T04:52:13.916Z,5.16
2022-09-30T04:55:15.921Z,5.09
2022-09-30T04:58:18.087Z,5.06
2022-09-30T05:01:20.275Z,5.03
2022-09-30T05:04:22.312Z,4.99
2022-09-30T05:07:26.934Z,4.94
2022-09-30T05:10:31.866Z,4.90
2022-09-30T05:13:35.326Z,4.88
2022-09-30T05:16:37.631Z,4.89
2022-09-30T05:19:39.453Z,4.88
2022-09-30T05:22:43.971Z,4.86
2022-09-30T05:25:46.207Z,4.85
2022-09-30T05:28:49.242Z,4.86
2022-09-30T05:31:51.387Z,4.87
2022-09-30T05:34:54.783Z,4.86
2022-09-30T05:37:59.939Z,4.85
2022-09-30T05:41:08.747Z,4.82
2022-09-30T05:44:10.492Z,4.80
2022-09-30T05:47:13.824Z,4.82
2022-09-30T05:50:16.633Z,4.83
2022-09-30T05:53:21.236Z,4.85
2022-09-30T05:56:22.998Z,4.84
2022-09-30T05:59:29.033Z,4.88
2022-09-30T06:02:30.935Z,4.93
2022-09-30T06:05:32.784Z,4.99
2022-09-30T06:08:37.023Z,5.01
2022-09-30T06:11:39.313Z,5.05
2022-09-30T06:14:41.149Z,5.10
2022-09-30T06:17:43.407Z,5.14
2022-09-30T06:20:45.202Z,5.21
2022-09-30T06:24:01.438Z,5.29
2022-09-30T06:27:06.805Z,5.33
2022-09-30T06:30:09.819Z,5.33
2022-09-30T06:33:12.681Z,5.33
2022-09-30T06:36:14.444Z,5.36
2022-09-30T06:39:17.616Z,5.38
2022-09-30T06:42:19.423Z,5.41
2022-09-30T06:45:31.369Z,5.45
2022-09-30T06:48:38.544Z,5.51
2022-09-30T06:51:41.009Z,5.58
2022-09-30T06:54:45.196Z,5.62
2022-09-30T06:57:48.102Z,5.69
2022-09-30T07:00:56.798Z,5.77
2022-09-30T07:03:58.679Z,5.93
2022-09-30T07:07:02.244Z,6.01
2022-09-30T07:10:06.009Z,6.04
2022-09-30T07:13:08.320Z,6.07
2022-09-30T07:16:12.391Z,6.10
2022-09-30T07:19:14.798Z,6.13
2022-09-30T07:22:29.802Z,6.20
2022-09-30T07:25:33.301Z,6.26
2022-09-30T07:28:36.128Z,6.36
2022-09-30T07:31:38.331Z,6.42
2022-09-30T07:34:43.813Z,6.48
2022-09-30T07:37:49.304Z,6.54
2022-09-30T07:41:04.963Z,6.62
2022-09-30T07:44:09.658Z,6.77
2022-09-30T07:47:11.834Z,6.85
2022-09-30T07:50:16.233Z,6.99
2022-09-30T07:53:20.513Z,7.15
2022-09-30T07:56:24.877Z,7.35
2022-09-30T07:59:28.166Z,7.43
2022-09-30T08:02:30.196Z,7.39
2022-09-30T08:05:32.162Z,7.44
2022-09-30T08:08:33.992Z,7.44
2022-09-30T08:11:38.422Z,7.46
2022-09-30T08:14:44.855Z,7.52
2022-09-30T08:17:47.411Z,7.54
2022-09-30T08:20:49.820Z,7.58
2022-09-30T08:23:51.889Z,7.67
2022-09-30T08:26:55.481Z,7.84
2022-09-30T08:29:59.279Z,7.93
2022-09-30T08:33:03.139Z,7.97
2022-09-30T08:36:07.877Z,7.95
2022-09-30T08:39:11.296Z,8.18
2022-09-30T08:42:47.066Z,8.30
2022-09-30T08:45:55.022Z,8.57
2022-09-30T08:49:05.849Z,8.86
2022-09-30T08:52:12.898Z,9.21
2022-09-30T08:55:23.962Z,9.39
2022-09-30T08:58:28.828Z,9.44
2022-09-30T09:01:32.922Z,9.51
2022-09-30T09:04:35.048Z,9.68
2022-09-30T09:07:40.901Z,9.74
2022-09-30T09:10:44.830Z,9.89
2022-09-30T09:13:51.871Z,10.10
2022-09-30T09:17:00.425Z,10.21
2022-09-30T09:20:08.408Z,10.36
2022-09-30T09:23:12.588Z,10.47
2022-09-30T09:26:15.280Z,10.57
2022-09-30T09:29:32.709Z,10.67
2022-09-30T09:32:35.389Z,10.83
2022-09-30T09:35:42.605Z,10.90
2022-09-30T09:38:54.897Z,10.93
2022-09-30T09:41:59.216Z,11.11
2022-09-30T09:45:06.424Z,11.09
2022-09-30T09:48:09.293Z,11.09
2022-09-30T09:51:14.748Z,11.17
2022-09-30T09:54:19.287Z,11.24
2022-09-30T09:57:32.761Z,11.38
2022-09-30T10:00:51.175Z,11.53
2022-09-30T10:04:09.644Z,11.56
2022-09-30T10:07:13.578Z,11.69
2022-09-30T10:10:23.918Z,11.68
2022-09-30T10:13:29.262Z,11.88
2022-09-30T10:16:35.754Z,12.00
2022-09-30T10:19:37.544Z,12.07
2022-09-30T10:22:39.753Z,12.18
2022-09-30T10:25:54.737Z,12.15
2022-09-30T10:28:57.643Z,12.22
2022-09-30T10:32:02.560Z,12.34
2022-09-30T10:35:06.454Z,12.43
2022-09-30T10:38:12.910Z,12.37
2022-09-30T10:41:21.670Z,12.38
2022-09-30T10:44:24.942Z,12.53
2022-09-30T10:47:36.408Z,12.59
2022-09-30T10:50:38.957Z,12.62
2022-09-30T10:53:45.210Z,12.67
2022-09-30T10:56:52.469Z,12.69
2022-09-30T10:59:58.434Z,12.66
2022-09-30T11:03:08.042Z,12.73
2022-09-30T11:06:12.962Z,12.78
2022-09-30T11:09:19.641Z,12.87
2022-09-30T11:12:26.160Z,13.11
2022-09-30T11:15:32.130Z,13.02
2022-09-30T11:18:41.201Z,13.12
2022-09-30T11:21:46.858Z,12.85
2022-09-30T11:24:52.510Z,13.11
2022-09-30T11:28:02.031Z,13.18
2022-09-30T11:31:14.944Z,13.09
2022-09-30T11:34:30.074Z,13.15
2022-09-30T11:37:40.832Z,13.26
2022-09-30T11:40:48.148Z,13.32
2022-09-30T11:43:55.485Z,13.23
2022-09-30T11:47:02.740Z,13.28
2022-09-30T11:50:20.087Z,13.04
2022-09-30T11:53:26.143Z,12.97
2022-09-30T11:56:34.424Z,13.17
2022-09-30T11:59:39.673Z,13.26
2022-09-30T12:02:44.792Z,13.46
2022-09-30T12:05:49.814Z,13.46
2022-09-30T12:08:58.707Z,13.45
2022-09-30T12:12:02.285Z,13.52
2022-09-30T12:15:06.940Z,13.55
2022-09-30T12:18:11.312Z,13.47
2022-09-30T12:21:18.691Z,13.55
2022-09-30T12:24:24.985Z,13.62
2022-09-30T12:27:31.669Z,13.66
2022-09-30T12:30:34.916Z,13.85
2022-09-30T12:33:43.388Z,13.90
2022-09-30T12:37:09.423Z,14.14
2022-09-30T12:40:27.406Z,14.28
2022-09-30T12:43:44.339Z,14.28
2022-09-30T12:46:55.482Z,14.19
2022-09-30T12:49:59.291Z,14.04
2022-09-30T12:53:09.828Z,13.99
2022-09-30T12:56:14.023Z,13.96
2022-09-30T12:59:19.487Z,13.81
2022-09-30T13:02:36.228Z,13.72
2022-09-30T13:05:51.998Z,13.69
2022-09-30T13:09:11.891Z,13.80
2022-09-30T13:12:25.323Z,14.21
2022-09-30T13:15:41.158Z,14.46
2022-09-30T13:19:02.202Z,14.53
2022-09-30T13:22:24.166Z,14.64
2022-09-30T13:25:26.405Z,14.41
2022-09-30T13:28:31.158Z,14.29
2022-09-30T13:31:53.839Z,13.95
2022-09-30T13:34:57.048Z,13.75
2022-09-30T13:38:11.053Z,13.89
2022-09-30T13:41:20.731Z,13.98
2022-09-30T13:44:31.915Z,14.17
2022-09-30T13:47:36.469Z,14.21
2022-09-30T13:50:45.626Z,14.24
2022-09-30T13:53:51.295Z,14.28
2022-09-30T13:56:54.128Z,14.30
2022-09-30T14:00:04.810Z,14.07
2022-09-30T14:03:13.494Z,13.89
2022-09-30T14:06:20.467Z,13.77
2022-09-30T14:09:35.254Z,13.87
2022-09-30T14:12:47.293Z,14.00
2022-09-30T14:16:07.261Z,14.10
2022-09-30T14:19:18.924Z,14.01
2022-09-30T14:22:25.895Z,14.02
2022-09-30T14:25:32.115Z,14.09
2022-09-30T14:28:42.474Z,14.02
2022-09-30T14:31:44.686Z,13.99
2022-09-30T14:34:49.041Z,14.05
2022-09-30T14:37:52.833Z,13.92
2022-09-30T14:40:57.070Z,13.84
2022-09-30T14:44:12.399Z,13.83
2022-09-30T14:47:23.636Z,13.79
2022-09-30T14:50:28.558Z,13.82
2022-09-30T14:53:31.900Z,13.85
2022-09-30T14:56:35.666Z,13.88
2022-09-30T14:59:41.028Z,13.88
2022-09-30T15:02:46.970Z,13.90
2022-09-30T15:05:50.579Z,13.88
2022-09-30T15:09:00.026Z,13.88
2022-09-30T15:12:05.839Z,13.83
2022-09-30T15:15:24.138Z,13.85
2022-09-30T15:18:29.513Z,13.82
2022-09-30T15:21:34.513Z,13.80
2022-09-30T15:24:37.191Z,13.80
2022-09-30T15:27:39.072Z,13.77
2022-09-30T15:30:43.901Z,13.80
2022-09-30T15:33:46.068Z,13.78
2022-09-30T15:36:56.699Z,13.75
2022-09-30T15:40:19.072Z,13.75
2022-09-30T15:43:33.361Z,13.72
2022-09-30T15:46:40.214Z,13.68
2022-09-30T15:49:48.231Z,13.62
2022-09-30T15:52:59.667Z,13.59
2022-09-30T15:56:20.050Z,13.53
2022-09-30T15:59:22.915Z,13.52
2022-09-30T16:02:25.598Z,13.49
2022-09-30T16:05:27.600Z,13.44
2022-09-30T16:08:33.383Z,13.40
2022-09-30T16:11:44.777Z,13.34
2022-09-30T16:14:51.944Z,13.26
2022-09-30T16:17:54.567Z,13.17
2022-09-30T16:20:58.305Z,13.10
2022-09-30T16:24:04.249Z,13.03
2022-09-30T16:27:20.040Z,12.93
2022-09-30T16:30:28.669Z,12.78
2022-09-30T16:33:30.816Z,12.68
2022-09-30T16:36:33.026Z,12.58
2022-09-30T16:39:36.569Z,12.47
2022-09-30T16:42:39.082Z,12.38
2022-09-30T16:45:52.842Z,12.30
2022-09-30T16:48:55.215Z,12.20
2022-09-30T16:51:57.186Z,12.10
2022-09-30T16:55:00.581Z,12.05
2022-09-30T16:58:05.388Z,12.11
2022-09-30T17:01:12.685Z,12.13
2022-09-30T17:04:17.087Z,12.13
2022-09-30T17:07:23.600Z,12.11
2022-09-30T17:10:29.477Z,12.05
2022-09-30T17:13:32.391Z,11.98
2022-09-30T17:16:34.922Z,11.90
2022-09-30T17:19:38.390Z,11.78
2022-09-30T17:22:41.008Z,11.73
2022-09-30T17:25:45.018Z,11.65
2022-09-30T17:28:46.991Z,11.56
2022-09-30T17:31:53.398Z,11.55
2022-09-30T17:34:55.161Z,11.52
2022-09-30T17:38:06.468Z,11.55
2022-09-30T17:41:32.068Z,11.51
2022-09-30T17:44:34.106Z,11.43
2022-09-30T17:47:39.692Z,11.39
2022-09-30T17:50:42.422Z,11.32
2022-09-30T17:53:47.244Z,11.26
2022-09-30T17:57:00.805Z,11.20
2022-09-30T18:00:03.028Z,11.12
2022-09-30T18:03:07.172Z,11.09
2022-09-30T18:06:16.821Z,11.04
2022-09-30T18:09:19.516Z,11.03
2022-09-30T18:12:24.516Z,11.01
2022-09-30T18:15:28.100Z,10.99
2022-09-30T18:18:31.008Z,10.96
2022-09-30T18:21:33.741Z,10.94
2022-09-30T18:24:58.614Z,10.90
2022-09-30T18:28:02.875Z,10.91
2022-09-30T18:31:06.725Z,10.92
2022-09-30T18:34:09.896Z,10.88
2022-09-30T18:37:13.338Z,10.85
2022-09-30T18:40:17.320Z,10.84
2022-09-30T18:43:23.295Z,10.82
2022-09-30T18:46:31.136Z,10.81
2022-09-30T18:49:41.437Z,10.78
2022-09-30T18:52:46.431Z,10.76
2022-09-30T18:55:51.428Z,10.69
2022-09-30T18:58:59.865Z,10.73
2022-09-30T19:02:04.390Z,10.69
2022-09-30T19:05:11.084Z,10.65
2022-09-30T19:08:14.757Z,10.60
2022-09-30T19:11:17.659Z,10.50
2022-09-30T19:14:20.926Z,10.47
2022-09-30T19:17:23.309Z,10.44
2022-09-30T19:20:25.537Z,10.40
2022-09-30T19:23:30.435Z,10.37
2022-09-30T19:26:33.423Z,10.39
2022-09-30T19:29:43.720Z,10.34
2022-09-30T19:32:56.952Z,10.29
2022-09-30T19:36:13.958Z,10.25
2022-09-30T19:39:16.903Z,10.20
2022-09-30T19:42:26.872Z,10.21
2022-09-30T19:45:34.600Z,10.16
2022-09-30T19:48:39.084Z,10.12
2022-09-30T19:51:44.362Z,10.08
2022-09-30T19:54:47.043Z,10.11
2022-09-30T19:57:48.998Z,10.08
2022-09-30T20:00:56.397Z,10.09
2022-09-30T20:04:00.308Z,10.07
2022-09-30T20:07:02.357Z,10.04
2022-09-30T20:10:04.511Z,9.99
2022-09-30T20:13:06.776Z,9.99
2022-09-30T20:16:11.653Z,9.95
2022-09-30T20:19:13.645Z,9.95
2022-09-30T20:22:15.623Z,9.91
2022-09-30T20:25:17.521Z,9.90
2022-09-30T20:28:20.734Z,9.95
2022-09-30T20:31:24.766Z,9.96
2022-09-30T20:34:27.463Z,9.96
2022-09-30T20:37:29.955Z,9.95
2022-09-30T20:40:33.011Z,9.92
2022-09-30T20:43:35.656Z,9.88
2022-09-30T20:46:40.188Z,9.87
2022-09-30T20:49:42.041Z,9.89
2022-09-30T20:52:47.203Z,9.88
2022-09-30T20:55:49.278Z,9.83
2022-09-30T20:58:53.221Z,9.85
2022-09-30T21:01:56.465Z,9.85
2022-09-30T21:04:58.400Z,9.93
2022-09-30T21:08:03.545Z,9.89
2022-09-30T21:11:05.615Z,9.88
2022-09-30T21:14:07.730Z,9.84
2022-09-30T21:17:11.108Z,9.81
2022-09-30T21:20:13.618Z,9.81
2022-09-30T21:23:19.041Z,9.80
2022-09-30T21:26:21.034Z,9.83
2022-09-30T21:29:23.655Z,9.79
2022-09-30T21:32:27.178Z,9.77
2022-09-30T21:35:29.064Z,9.73
2022-09-30T21:38:32.051Z,9.72
2022-09-30T21:41:34.615Z,9.68
2022-09-30T21:44:36.448Z,9.63
2022-09-30T21:47:39.752Z,9.63
2022-09-30T21:50:41.448Z,9.63
2022-09-30T21:53:45.826Z,9.62
2022-09-30T21:56:48.676Z,9.59
2022-09-30T21:59:51.038Z,9.55
2022-09-30T22:02:54.221Z,9.56
2022-09-30T22:05:57.645Z,9.58
2022-09-30T22:09:01.736Z,9.61
2022-09-30T22:12:08.749Z,9.56
2022-09-30T22:15:10.784Z,9.58
2022-09-30T22:18:16.635Z,9.57
2022-09-30T22:21:18.358Z,9.57
2022-09-30T22:24:21.502Z,9.58
2022-09-30T22:27:23.725Z,9.57
2022-09-30T22:30:27.794Z,9.61
2022-09-30T22:33:50.134Z,9.57
2022-09-30T22:37:11.243Z,9.56
2022-09-30T22:40:12.914Z,9.52
2022-09-30T22:43:15.435Z,9.52
2022-09-30T22:46:17.214Z,9.54
2022-09-30T22:49:23.095Z,9.56
2022-09-30T22:52:25.167Z,9.53
2022-09-30T22:55:27.126Z,9.50
2022-09-30T22:58:29.004Z,9.43
2022-09-30T23:01:32.120Z,9.41
2022-09-30T23:04:36.526Z,9.36
2022-09-30T23:07:38.263Z,9.37
2022-09-30T23:10:45.673Z,9.33
2022-09-30T23:13:47.669Z,9.31
2022-09-30T23:16:49.913Z,9.29
2022-09-30T23:19:53.509Z,9.27
2022-09-30T23:22:55.488Z,9.26
2022-09-30T23:26:01.364Z,9.33
2022-09-30T23:29:04.886Z,9.35
2022-09-30T23:32:06.683Z,9.40
2022-09-30T23:35:10.532Z,9.39
2022-09-30T23:38:13.020Z,9.42
2022-09-30T23:41:14.981Z,9.41
2022-09-30T23:44:18.912Z,9.43
2022-09-30T23:47:21.651Z,9.41
2022-09-30T23:50:28.045Z,9.45
2022-09-30T23:53:30.338Z,9.46
2022-09-30T23:56:32.379Z,9.44
2022-09-30T23:59:34.542Z,9.48
